createdAt,value
2023-03-26T00:00:00.780Z,0.82
2023-03-26T00:01:05.849Z,1.20
2023-03-26T00:02:07.464Z,1.40
2023-03-26T00:03:12.182Z,1.10
2023-03-26T00:04:13.805Z,1.13
2023-03-26T00:05:16.723Z,0.98
2023-03-26T00:06:18.413Z,1.20
2023-03-26T00:07:20.062Z,1.20
2023-03-26T00:08:22.091Z,1.35
2023-03-26T00:09:23.705Z,1.23
2023-03-26T00:10:25.479Z,1.08
2023-03-26T00:11:29.226Z,1.10
2023-03-26T00:12:30.841Z,1.10
2023-03-26T00:13:33.236Z,1.17
2023-03-26T00:14:35.393Z,1.40
2023-03-26T00:15:37.626Z,1.30
2023-03-26T00:16:40.378Z,1.20
2023-03-26T00:17:42.043Z,1.10
2023-03-26T00:18:44.457Z,1.17
2023-03-26T00:20:48.027Z,1.10
2023-03-26T00:21:51.624Z,1.38
2023-03-26T00:22:55.075Z,1.60
2023-03-26T00:23:59.777Z,1.40
2023-03-26T00:25:01.468Z,1.25
2023-03-26T00:26:03.613Z,1.35
2023-03-26T00:27:05.701Z,1.33
2023-03-26T00:28:08.211Z,1.08
2023-03-26T00:30:12.501Z,1.10
2023-03-26T00:31:15.062Z,1.40
2023-03-26T00:32:17.047Z,1.20
2023-03-26T00:33:18.600Z,1.30
2023-03-26T00:34:20.749Z,1.10
2023-03-26T00:35:22.555Z,1.20
2023-03-26T00:36:28.101Z,1.08
2023-03-26T00:37:30.548Z,1.10
2023-03-26T00:38:33.727Z,1.15
2023-03-26T00:39:37.429Z,1.30
2023-03-26T00:40:43.980Z,1.20
2023-03-26T00:41:45.666Z,1.48
2023-03-26T00:42:47.526Z,1.10
2023-03-26T00:43:52.127Z,1.38
2023-03-26T00:44:57.759Z,1.20
2023-03-26T00:45:59.532Z,1.02
2023-03-26T00:47:01.464Z,1.15
2023-03-26T00:48:03.151Z,1.10
2023-03-26T00:49:05.144Z,1.17
2023-03-26T00:50:15.685Z,1.10
2023-03-26T00:51:19.071Z,1.20
2023-03-26T00:52:20.808Z,1.20
2023-03-26T00:53:23.427Z,1.48
2023-03-26T00:54:25.273Z,1.10
2023-03-26T00:55:26.997Z,1.38
2023-03-26T00:56:28.618Z,1.13
2023-03-26T00:57:35.796Z,1.10
2023-03-26T00:58:38.648Z,1.10
2023-03-26T00:59:41.285Z,1.20
2023-03-26T01:00:58.339Z,1.35
2023-03-26T01:02:00.307Z,1.10
2023-03-26T01:03:04.404Z,1.13
2023-03-26T01:04:27.557Z,1.30
2023-03-26T01:05:36.218Z,1.23
2023-03-26T01:06:41.428Z,1.13
2023-03-26T01:07:44.687Z,1.25
2023-03-26T01:08:50.765Z,1.20
2023-03-26T01:09:52.455Z,1.27
2023-03-26T01:11:03.200Z,1.05
2023-03-26T01:12:07.479Z,1.20
2023-03-26T01:13:09.274Z,0.90
2023-03-26T01:14:17.047Z,1.27
2023-03-26T01:15:19.192Z,1.30
2023-03-26T01:16:29.512Z,1.10
2023-03-26T01:17:34.182Z,1.10
2023-03-26T01:18:41.118Z,1.27
2023-03-26T01:20:14.967Z,1.30
2023-03-26T01:21:29.984Z,1.08
2023-03-26T01:22:32.225Z,1.30
2023-03-26T01:24:03.070Z,1.30
2023-03-26T01:25:05.005Z,1.45
2023-03-26T01:26:36.450Z,1.38
2023-03-26T01:27:58.361Z,1.42
2023-03-26T01:29:02.755Z,1.40
2023-03-26T01:30:18.016Z,1.40
2023-03-26T01:31:25.213Z,1.10
2023-03-26T01:32:51.340Z,1.20
2023-03-26T01:34:00.565Z,1.30
2023-03-26T01:35:08.332Z,1.67
2023-03-26T01:36:19.251Z,1.20
2023-03-26T01:37:30.567Z,1.27
2023-03-26T01:39:01.437Z,1.30
2023-03-26T01:40:10.054Z,1.20
2023-03-26T01:42:36.339Z,1.10
2023-03-26T01:44:05.846Z,1.30
2023-03-26T01:45:11.530Z,1.40
2023-03-26T01:46:14.211Z,1.05
2023-03-26T01:47:17.395Z,1.38
2023-03-26T01:48:19.112Z,1.50
2023-03-26T01:49:20.892Z,1.30
2023-03-26T01:50:22.571Z,1.17
2023-03-26T01:51:42.684Z,1.20
2023-03-26T01:52:44.342Z,1.45
2023-03-26T01:53:47.150Z,1.60
2023-03-26T01:54:49.154Z,1.88
2023-03-26T01:56:12.697Z,1.73
2023-03-26T01:57:23.738Z,1.98
2023-03-26T01:58:49.631Z,1.60
2023-03-26T02:00:01.667Z,1.30
2023-03-26T02:01:03.223Z,1.60
2023-03-26T02:02:15.375Z,1.40
2023-03-26T02:03:26.358Z,1.40
2023-03-26T02:04:53.006Z,1.40
2023-03-26T02:06:20.163Z,1.60
2023-03-26T02:07:34.546Z,1.40
2023-03-26T02:08:41.345Z,1.50
2023-03-26T02:09:46.830Z,2.00
2023-03-26T02:10:52.374Z,1.13
2023-03-26T02:11:54.283Z,1.30
2023-03-26T02:12:56.727Z,1.38
2023-03-26T02:13:58.309Z,1.30
2023-03-26T02:15:01.962Z,1.50
2023-03-26T02:16:06.475Z,1.40
2023-03-26T02:17:09.983Z,1.58
2023-03-26T02:18:13.362Z,1.30
2023-03-26T02:19:21.532Z,1.42
2023-03-26T02:21:26.246Z,1.30
2023-03-26T02:22:29.830Z,1.50
2023-03-26T02:23:35.904Z,1.40
2023-03-26T02:24:40.560Z,1.60
2023-03-26T02:25:43.867Z,1.25
2023-03-26T02:26:45.850Z,1.55
2023-03-26T02:27:49.293Z,1.30
2023-03-26T02:28:51.246Z,1.42
2023-03-26T02:29:53.312Z,1.60
2023-03-26T02:30:57.714Z,1.50
2023-03-26T02:31:59.727Z,1.70
2023-03-26T02:33:01.595Z,1.52
2023-03-26T02:34:12.822Z,1.30
2023-03-26T02:35:22.117Z,1.50
2023-03-26T02:36:28.039Z,1.23
2023-03-26T02:37:36.011Z,1.27
2023-03-26T02:38:46.753Z,1.50
2023-03-26T02:39:49.591Z,1.50
2023-03-26T02:41:01.112Z,1.20
2023-03-26T02:42:12.331Z,1.30
2023-03-26T02:43:21.442Z,1.30
2023-03-26T02:44:23.218Z,1.40
2023-03-26T02:45:33.541Z,1.50
2023-03-26T02:46:41.502Z,1.20
2023-03-26T02:48:01.877Z,1.30
2023-03-26T02:49:26.160Z,1.80
2023-03-26T02:50:28.541Z,1.58
2023-03-26T02:51:50.826Z,1.40
2023-03-26T02:53:00.715Z,1.30
2023-03-26T02:54:04.945Z,1.50
2023-03-26T02:55:22.184Z,1.40
2023-03-26T02:56:26.162Z,1.85
2023-03-26T02:57:50.646Z,1.52
2023-03-26T02:58:58.306Z,1.30
2023-03-26T03:00:00.119Z,1.50
2023-03-26T03:01:24.797Z,1.67
2023-03-26T03:02:29.383Z,1.30
2023-03-26T03:03:37.834Z,1.80
2023-03-26T03:05:01.605Z,1.40
2023-03-26T03:06:09.062Z,2.35
2023-03-26T03:07:22.740Z,1.58
2023-03-26T03:08:26.680Z,1.50
2023-03-26T03:09:45.627Z,1.70
2023-03-26T03:11:24.527Z,1.58
2023-03-26T03:12:26.681Z,1.60
2023-03-26T03:13:28.701Z,1.20
2023-03-26T03:14:31.621Z,1.65
2023-03-26T03:15:33.469Z,1.55
2023-03-26T03:16:35.397Z,1.60
2023-03-26T03:17:41.544Z,1.65
2023-03-26T03:19:45.306Z,1.30
2023-03-26T03:20:47.102Z,1.40
2023-03-26T03:21:48.851Z,1.60
2023-03-26T03:22:50.780Z,1.30
2023-03-26T03:23:53.542Z,1.42
2023-03-26T03:24:59.940Z,1.30
2023-03-26T03:26:02.650Z,1.40
2023-03-26T03:27:04.929Z,1.50
2023-03-26T03:28:15.324Z,1.88
2023-03-26T03:29:17.381Z,1.95
2023-03-26T03:30:19.033Z,1.58
2023-03-26T03:31:21.668Z,1.65
2023-03-26T03:32:23.644Z,1.40
2023-03-26T03:33:28.281Z,1.42
2023-03-26T03:34:29.931Z,1.80
2023-03-26T03:35:33.512Z,1.52
2023-03-26T03:36:38.550Z,1.60
2023-03-26T03:37:54.500Z,1.52
2023-03-26T03:39:02.085Z,1.70
2023-03-26T03:40:07.498Z,1.50
2023-03-26T03:41:11.273Z,1.48
2023-03-26T03:42:16.174Z,1.70
2023-03-26T03:43:17.958Z,1.67
2023-03-26T03:44:33.065Z,1.40
2023-03-26T03:45:36.669Z,1.90
2023-03-26T03:46:57.301Z,1.70
2023-03-26T03:47:59.233Z,1.80
2023-03-26T03:49:13.604Z,1.63
2023-03-26T03:50:15.931Z,1.67
2023-03-26T03:51:30.424Z,1.50
2023-03-26T03:52:37.099Z,1.63
2023-03-26T03:53:40.680Z,1.65
2023-03-26T03:54:43.373Z,2.28
2023-03-26T03:56:10.554Z,1.50
2023-03-26T03:57:32.108Z,1.40
2023-03-26T03:58:36.690Z,1.67
2023-03-26T03:59:47.913Z,1.98
2023-03-26T04:00:52.347Z,1.48
2023-03-26T04:02:35.098Z,1.58
2023-03-26T04:03:40.091Z,1.30
2023-03-26T04:04:50.207Z,1.73
2023-03-26T04:05:55.253Z,1.30
2023-03-26T04:06:59.663Z,1.60
2023-03-26T04:08:07.087Z,1.65
2023-03-26T04:09:21.001Z,1.75
2023-03-26T04:10:23.558Z,1.80
2023-03-26T04:11:50.756Z,1.50
2023-03-26T04:13:15.353Z,1.60
2023-03-26T04:14:36.590Z,1.60
2023-03-26T04:15:43.920Z,1.65
2023-03-26T04:16:45.648Z,1.50
2023-03-26T04:17:47.446Z,1.60
2023-03-26T04:18:51.639Z,1.80
2023-03-26T04:19:54.918Z,1.63
2023-03-26T04:21:03.202Z,1.60
2023-03-26T04:22:06.322Z,1.65
2023-03-26T04:23:15.312Z,2.05
2023-03-26T04:24:19.650Z,1.67
2023-03-26T04:25:41.693Z,1.70
2023-03-26T04:26:51.047Z,2.13
2023-03-26T04:27:58.437Z,1.70
2023-03-26T04:29:27.743Z,1.60
2023-03-26T04:30:29.452Z,1.60
2023-03-26T04:31:43.283Z,1.65
2023-03-26T04:32:46.666Z,1.70
2023-03-26T04:33:48.432Z,1.63
2023-03-26T04:34:52.965Z,1.48
2023-03-26T04:36:02.609Z,2.00
2023-03-26T04:37:06.572Z,1.73
2023-03-26T04:38:16.885Z,1.63
2023-03-26T04:39:29.214Z,1.50
2023-03-26T04:40:49.731Z,1.63
2023-03-26T04:42:14.348Z,1.50
2023-03-26T04:43:31.280Z,1.77
2023-03-26T04:44:59.887Z,1.77
2023-03-26T04:46:05.764Z,1.90
2023-03-26T04:47:13.457Z,1.60
2023-03-26T04:48:20.547Z,1.52
2023-03-26T04:49:22.705Z,1.75
2023-03-26T04:50:26.428Z,1.50
2023-03-26T04:51:35.115Z,1.70
2023-03-26T04:52:37.629Z,1.70
2023-03-26T04:54:07.201Z,1.95
2023-03-26T04:55:24.921Z,1.70
2023-03-26T04:56:51.342Z,1.77
2023-03-26T04:57:57.833Z,1.50
2023-03-26T04:59:37.194Z,1.70
2023-03-26T05:00:43.241Z,1.40
2023-03-26T05:01:47.741Z,1.67
2023-03-26T05:02:56.061Z,1.50
2023-03-26T05:03:58.716Z,1.80
2023-03-26T05:05:02.991Z,1.58
2023-03-26T05:06:06.580Z,1.45
2023-03-26T05:07:09.509Z,1.90
2023-03-26T05:08:17.405Z,1.58
2023-03-26T05:09:19.842Z,1.85
2023-03-26T05:10:44.536Z,1.40
2023-03-26T05:12:02.498Z,1.65
2023-03-26T05:13:09.730Z,1.70
2023-03-26T05:14:14.202Z,1.88
2023-03-26T05:16:42.678Z,1.52
2023-03-26T05:17:46.398Z,1.70
2023-03-26T05:18:56.329Z,3.10
2023-03-26T05:19:58.960Z,2.58
2023-03-26T05:21:00.695Z,2.15
2023-03-26T05:22:03.571Z,2.00
2023-03-26T05:23:08.150Z,1.95
2023-03-26T05:24:12.497Z,2.03
2023-03-26T05:25:14.425Z,2.10
2023-03-26T05:26:18.098Z,2.50
2023-03-26T05:27:22.586Z,1.70
2023-03-26T05:28:26.398Z,2.08
2023-03-26T05:29:47.267Z,2.25
2023-03-26T05:30:48.907Z,2.53
2023-03-26T05:31:51.062Z,1.92
2023-03-26T05:32:52.863Z,1.85
2023-03-26T05:34:03.245Z,1.70
2023-03-26T05:35:05.741Z,1.67
2023-03-26T05:36:09.774Z,1.70
2023-03-26T05:37:11.645Z,1.60
2023-03-26T05:38:37.075Z,1.70
2023-03-26T05:39:41.240Z,2.10
2023-03-26T05:40:52.000Z,1.50
2023-03-26T05:41:54.983Z,1.60
2023-03-26T05:43:02.297Z,1.50
2023-03-26T05:44:13.468Z,1.60
2023-03-26T05:45:18.607Z,1.55
2023-03-26T05:46:21.978Z,1.83
2023-03-26T05:47:24.133Z,2.17
2023-03-26T05:48:26.413Z,2.20
2023-03-26T05:49:28.163Z,2.50
2023-03-26T05:50:29.852Z,3.10
2023-03-26T05:51:34.702Z,3.00
2023-03-26T05:53:05.462Z,4.50
2023-03-26T05:54:16.407Z,4.18
2023-03-26T05:55:36.368Z,4.30
2023-03-26T05:56:58.016Z,3.42
2023-03-26T05:58:18.407Z,1.92
2023-03-26T05:59:38.743Z,1.70
2023-03-26T06:01:09.565Z,1.63
2023-03-26T06:02:31.661Z,1.58
2023-03-26T06:04:05.799Z,1.60
2023-03-26T06:05:12.922Z,1.60
2023-03-26T06:06:44.987Z,1.60
2023-03-26T06:07:46.790Z,1.50
2023-03-26T06:09:02.312Z,1.70
2023-03-26T06:10:05.753Z,1.85
2023-03-26T06:11:08.092Z,2.10
2023-03-26T06:12:12.763Z,1.58
2023-03-26T06:13:16.345Z,1.65
2023-03-26T06:14:18.981Z,1.58
2023-03-26T06:15:47.005Z,1.90
2023-03-26T06:17:15.156Z,1.60
2023-03-26T06:18:51.709Z,1.63
2023-03-26T06:20:17.351Z,1.35
2023-03-26T06:21:21.941Z,2.25
2023-03-26T06:22:30.870Z,1.42
2023-03-26T06:23:51.601Z,1.65
2023-03-26T06:25:14.583Z,1.63
2023-03-26T06:26:41.783Z,1.33
2023-03-26T06:28:03.900Z,1.65
2023-03-26T06:29:24.164Z,1.95
2023-03-26T06:30:48.506Z,1.50
2023-03-26T06:32:19.481Z,1.48
2023-03-26T06:33:36.465Z,1.50
2023-03-26T06:34:38.502Z,1.88
2023-03-26T06:35:40.397Z,1.83
2023-03-26T06:36:42.155Z,1.50
2023-03-26T06:37:43.941Z,1.80
2023-03-26T06:38:45.600Z,2.15
2023-03-26T06:39:47.301Z,2.60
2023-03-26T06:40:54.672Z,2.33
2023-03-26T06:41:56.496Z,2.92
2023-03-26T06:43:16.905Z,2.80
2023-03-26T06:44:29.206Z,2.55
2023-03-26T06:45:52.564Z,1.90
2023-03-26T06:47:12.912Z,1.30
2023-03-26T06:48:33.333Z,1.48
2023-03-26T06:49:53.865Z,1.20
2023-03-26T06:51:15.898Z,1.60
2023-03-26T06:52:36.294Z,1.50
2023-03-26T06:54:09.972Z,1.65
2023-03-26T06:55:27.798Z,1.60
2023-03-26T06:56:39.512Z,1.40
2023-03-26T06:57:59.871Z,1.50
2023-03-26T06:59:20.036Z,1.60
2023-03-26T07:00:44.859Z,1.70
2023-03-26T07:02:16.211Z,1.63
2023-03-26T07:03:36.328Z,1.42
2023-03-26T07:04:56.939Z,1.20
2023-03-26T07:07:53.923Z,1.38
2023-03-26T07:09:14.023Z,1.40
2023-03-26T07:10:34.406Z,2.08
2023-03-26T07:12:05.898Z,1.45
2023-03-26T07:13:30.869Z,1.50
2023-03-26T07:14:51.126Z,1.90
2023-03-26T07:16:11.511Z,2.22
2023-03-26T07:17:45.758Z,1.90
2023-03-26T07:18:55.984Z,1.67
2023-03-26T07:20:01.534Z,2.08
2023-03-26T07:21:03.686Z,1.70
2023-03-26T07:22:07.660Z,1.58
2023-03-26T07:23:41.651Z,1.50
2023-03-26T07:26:35.375Z,1.52
2023-03-26T07:28:27.006Z,2.10
2023-03-26T07:30:04.903Z,1.48
2023-03-26T07:31:42.272Z,1.70
2023-03-26T07:33:10.261Z,1.50
2023-03-26T07:34:41.172Z,1.60
2023-03-26T07:36:22.706Z,1.83
2023-03-26T07:38:04.825Z,2.25
2023-03-26T07:39:28.108Z,2.20
2023-03-26T07:41:32.790Z,1.63
2023-03-26T07:43:32.146Z,1.50
2023-03-26T07:44:51.185Z,1.95
2023-03-26T07:46:29.726Z,1.70
2023-03-26T07:48:25.429Z,2.08
2023-03-26T07:49:46.034Z,2.40
2023-03-26T07:51:11.544Z,3.40
2023-03-26T07:52:29.644Z,1.90
2023-03-26T07:53:41.580Z,2.33
2023-03-26T07:54:53.253Z,1.67
2023-03-26T07:56:27.852Z,1.90
2023-03-26T07:58:04.502Z,1.95
2023-03-26T07:59:45.078Z,1.70
2023-03-26T08:01:46.629Z,1.55
2023-03-26T08:03:09.869Z,1.67
2023-03-26T08:05:10.423Z,1.45
2023-03-26T08:06:39.713Z,1.77
2023-03-26T08:08:23.110Z,1.85
2023-03-26T08:10:02.346Z,1.77
2023-03-26T08:11:44.617Z,1.50
2023-03-26T08:13:12.278Z,1.60
2023-03-26T08:14:17.080Z,1.73
2023-03-26T08:15:39.380Z,1.65
2023-03-26T08:16:57.443Z,1.92
2023-03-26T08:18:11.948Z,1.73
2023-03-26T08:20:41.540Z,2.03
2023-03-26T08:21:48.210Z,2.25
2023-03-26T08:23:09.496Z,2.08
2023-03-26T08:24:22.155Z,1.85
2023-03-26T08:25:27.748Z,2.45
2023-03-26T08:26:47.699Z,1.90
2023-03-26T08:28:01.243Z,1.70
2023-03-26T08:29:15.880Z,1.83
2023-03-26T08:30:19.698Z,2.20
2023-03-26T08:31:29.072Z,1.67
2023-03-26T08:32:31.428Z,1.65
2023-03-26T08:33:35.997Z,1.70
2023-03-26T08:34:39.075Z,1.50
2023-03-26T08:35:42.561Z,1.80
2023-03-26T08:36:44.349Z,2.28
2023-03-26T08:37:45.992Z,2.08
2023-03-26T08:38:47.744Z,2.10
2023-03-26T08:39:49.345Z,2.08
2023-03-26T08:41:14.616Z,2.30
2023-03-26T08:42:19.029Z,2.30
2023-03-26T08:43:36.179Z,2.67
2023-03-26T08:44:49.232Z,2.47
2023-03-26T08:46:12.111Z,2.47
2023-03-26T08:47:22.810Z,2.17
2023-03-26T08:48:46.238Z,1.90
2023-03-26T08:49:59.816Z,2.28
2023-03-26T08:51:27.977Z,2.42
2023-03-26T08:53:03.936Z,2.20
2023-03-26T08:54:13.745Z,1.90
2023-03-26T08:55:36.475Z,2.00
2023-03-26T08:57:03.046Z,2.25
2023-03-26T08:58:37.739Z,2.67
2023-03-26T09:00:16.859Z,2.35
2023-03-26T09:01:30.766Z,2.47
2023-03-26T09:03:15.413Z,4.07
2023-03-26T09:04:22.854Z,5.75
2023-03-26T09:05:44.790Z,7.18
2023-03-26T09:07:25.949Z,8.30
2023-03-26T09:08:30.051Z,9.10
2023-03-26T09:10:04.607Z,5.45
2023-03-26T09:11:24.303Z,3.33
2023-03-26T09:12:52.141Z,3.45
2023-03-26T09:14:15.827Z,4.53
2023-03-26T09:15:32.805Z,2.80
2023-03-26T09:17:00.802Z,3.28
2023-03-26T09:18:28.748Z,6.55
2023-03-26T09:20:01.342Z,5.07
2023-03-26T09:21:40.832Z,4.22
2023-03-26T09:22:57.561Z,2.08
2023-03-26T09:24:11.224Z,2.25
2023-03-26T09:25:26.788Z,2.00
2023-03-26T09:27:04.975Z,2.17
2023-03-26T09:28:43.715Z,2.67
2023-03-26T09:30:04.460Z,1.95
2023-03-26T09:32:43.072Z,2.00
2023-03-26T09:34:17.028Z,2.20
2023-03-26T09:35:19.389Z,2.10
2023-03-26T09:36:44.184Z,2.88
2023-03-26T09:37:59.228Z,2.20
2023-03-26T09:39:17.917Z,2.00
2023-03-26T09:40:22.595Z,2.00
2023-03-26T09:41:43.568Z,1.75
2023-03-26T09:42:52.390Z,1.95
2023-03-26T09:44:15.638Z,2.10
2023-03-26T09:45:21.444Z,2.35
2023-03-26T09:46:44.964Z,2.42
2023-03-26T09:47:52.147Z,1.95
2023-03-26T09:49:15.550Z,2.10
2023-03-26T09:50:55.919Z,2.13
2023-03-26T09:52:00.577Z,1.90
2023-03-26T09:53:20.256Z,2.38
2023-03-26T09:54:44.746Z,2.30
2023-03-26T09:55:57.310Z,2.53
2023-03-26T09:57:08.038Z,2.35
2023-03-26T09:58:15.478Z,1.80
2023-03-26T09:59:40.800Z,2.25
2023-03-26T10:00:51.073Z,2.28
2023-03-26T10:01:55.705Z,2.50
2023-03-26T10:03:08.480Z,2.70
2023-03-26T10:04:20.272Z,5.97
2023-03-26T10:05:54.780Z,6.82
2023-03-26T10:07:04.484Z,2.90
2023-03-26T10:08:32.226Z,3.08
2023-03-26T10:10:11.776Z,2.42
2023-03-26T10:11:23.715Z,2.30
2023-03-26T10:12:38.811Z,2.42
2023-03-26T10:13:52.790Z,2.25
2023-03-26T10:15:08.771Z,2.88
2023-03-26T10:16:58.349Z,3.00
2023-03-26T10:18:27.482Z,3.47
2023-03-26T10:20:09.621Z,2.58
2023-03-26T10:21:48.296Z,2.97
2023-03-26T10:23:02.035Z,2.53
2023-03-26T10:24:12.740Z,2.15
2023-03-26T10:25:22.625Z,2.28
2023-03-26T10:26:42.908Z,2.17
2023-03-26T10:28:13.706Z,1.92
2023-03-26T10:29:20.982Z,2.22
2023-03-26T10:30:45.750Z,2.38
2023-03-26T10:32:09.662Z,2.10
2023-03-26T10:33:45.241Z,1.90
2023-03-26T10:35:06.903Z,1.90
2023-03-26T10:36:21.212Z,1.60
2023-03-26T10:37:40.505Z,1.60
2023-03-26T10:39:03.813Z,1.75
2023-03-26T10:40:27.009Z,1.52
2023-03-26T10:41:47.384Z,1.67
2023-03-26T10:43:02.964Z,1.90
2023-03-26T10:44:15.793Z,1.60
2023-03-26T10:45:20.812Z,1.52
2023-03-26T10:46:47.627Z,1.65
2023-03-26T10:47:58.485Z,1.40
2023-03-26T10:49:27.790Z,1.77
2023-03-26T10:50:50.422Z,1.40
2023-03-26T10:52:08.282Z,1.20
2023-03-26T10:53:25.554Z,1.20
2023-03-26T10:54:27.456Z,1.20
2023-03-26T10:55:34.603Z,1.40
2023-03-26T10:56:40.489Z,1.00
2023-03-26T10:58:04.504Z,1.30
2023-03-26T10:59:08.282Z,1.10
2023-03-26T11:00:25.203Z,1.40
2023-03-26T11:01:42.798Z,1.60
2023-03-26T11:03:01.869Z,1.30
2023-03-26T11:04:16.593Z,1.40
2023-03-26T11:05:34.953Z,1.20
2023-03-26T11:06:48.821Z,1.10
2023-03-26T11:08:31.021Z,1.02
2023-03-26T11:09:36.722Z,1.33
2023-03-26T11:11:05.354Z,1.20
2023-03-26T11:12:26.111Z,1.10
2023-03-26T11:13:55.586Z,1.00
2023-03-26T11:15:15.788Z,1.20
2023-03-26T11:16:29.573Z,1.10
2023-03-26T11:17:40.918Z,1.40
2023-03-26T11:18:57.001Z,1.38
2023-03-26T11:20:08.389Z,1.10
2023-03-26T11:21:26.775Z,1.30
2023-03-26T11:22:52.662Z,1.20
2023-03-26T11:24:09.295Z,1.05
2023-03-26T11:25:32.637Z,1.15
2023-03-26T11:27:15.584Z,0.77
2023-03-26T11:29:03.104Z,1.00
2023-03-26T11:30:29.937Z,1.33
2023-03-26T11:31:43.723Z,1.00
2023-03-26T11:33:08.121Z,1.10
2023-03-26T11:34:14.638Z,0.90
2023-03-26T11:35:40.336Z,1.00
2023-03-26T11:37:54.412Z,1.10
2023-03-26T11:38:58.887Z,1.10
2023-03-26T11:40:21.431Z,0.90
2023-03-26T11:41:25.487Z,1.10
2023-03-26T11:42:34.253Z,1.08
2023-03-26T11:43:36.822Z,0.88
2023-03-26T11:44:39.836Z,1.00
2023-03-26T11:45:45.610Z,1.50
2023-03-26T11:46:49.812Z,0.63
2023-03-26T11:47:58.238Z,1.20
2023-03-26T11:49:00.538Z,0.85
2023-03-26T11:50:04.581Z,1.00
2023-03-26T11:51:10.280Z,1.00
2023-03-26T11:52:12.515Z,0.80
2023-03-26T11:53:17.764Z,1.20
2023-03-26T11:54:21.050Z,0.88
2023-03-26T11:55:24.264Z,1.00
2023-03-26T11:57:04.819Z,0.90
2023-03-26T11:58:21.389Z,0.90
2023-03-26T11:59:56.468Z,0.95
2023-03-26T12:00:59.339Z,0.82
2023-03-26T12:02:10.059Z,1.10
2023-03-26T12:03:15.772Z,1.05
2023-03-26T12:04:31.457Z,0.90
2023-03-26T12:05:49.069Z,1.90
2023-03-26T12:07:00.196Z,2.28
2023-03-26T12:08:19.601Z,2.53
2023-03-26T12:10:35.121Z,0.90
2023-03-26T12:11:37.363Z,1.77
2023-03-26T12:12:41.351Z,2.55
2023-03-26T12:13:45.566Z,3.28
2023-03-26T12:14:47.717Z,1.83
2023-03-26T12:15:49.732Z,1.45
2023-03-26T12:17:06.722Z,1.60
2023-03-26T12:18:26.005Z,1.50
2023-03-26T12:19:35.580Z,1.60
2023-03-26T12:20:38.807Z,2.70
2023-03-26T12:21:49.775Z,2.35
2023-03-26T12:22:59.529Z,1.30
2023-03-26T12:24:05.706Z,3.13
2023-03-26T12:25:17.666Z,2.83
2023-03-26T12:26:22.164Z,1.40
2023-03-26T12:27:25.975Z,1.70
2023-03-26T12:28:32.106Z,1.60
2023-03-26T12:29:34.578Z,2.25
2023-03-26T12:30:38.045Z,2.30
2023-03-26T12:31:42.581Z,1.80
2023-03-26T12:32:46.684Z,1.45
2023-03-26T12:34:07.582Z,1.30
2023-03-26T12:35:18.822Z,1.23
2023-03-26T12:36:29.136Z,1.10
2023-03-26T12:37:39.290Z,1.10
2023-03-26T12:38:42.510Z,1.20
2023-03-26T12:40:08.889Z,1.17
2023-03-26T12:42:52.691Z,1.05
2023-03-26T12:44:47.212Z,1.10
2023-03-26T12:44:55.536Z,1.20
2023-03-26T12:45:23.944Z,1.20
2023-03-26T12:47:54.962Z,1.63
2023-03-26T12:48:00.766Z,1.10
2023-03-26T12:49:06.401Z,0.80
2023-03-26T12:50:13.090Z,0.65
2023-03-26T12:51:14.657Z,0.80
2023-03-26T12:53:02.677Z,0.70
2023-03-26T12:54:23.594Z,0.93
2023-03-26T12:56:11.706Z,0.70
2023-03-26T12:57:24.775Z,0.80
2023-03-26T12:58:32.485Z,0.98
2023-03-26T12:59:40.121Z,0.77
2023-03-26T13:01:03.533Z,0.65
2023-03-26T13:02:33.255Z,0.60
2023-03-26T13:03:43.972Z,0.40
2023-03-26T13:05:04.390Z,0.40
2023-03-26T13:07:02.093Z,0.50
2023-03-26T13:08:22.697Z,0.50
2023-03-26T13:09:42.786Z,1.15
2023-03-26T13:10:53.439Z,0.90
2023-03-26T13:12:07.096Z,1.02
2023-03-26T13:13:17.861Z,1.05
2023-03-26T13:14:19.409Z,1.30
2023-03-26T13:15:33.146Z,1.10
2023-03-26T13:16:53.046Z,0.77
2023-03-26T13:18:09.393Z,0.80
2023-03-26T13:19:23.220Z,0.75
2023-03-26T13:20:43.373Z,0.50
2023-03-26T13:22:02.136Z,0.50
2023-03-26T13:23:31.631Z,0.75
2023-03-26T13:24:50.103Z,0.47
2023-03-26T13:26:26.457Z,0.45
2023-03-26T13:27:37.276Z,0.70
2023-03-26T13:29:14.218Z,0.40
2023-03-26T13:30:25.399Z,0.45
2023-03-26T13:31:57.544Z,0.60
2023-03-26T13:33:21.500Z,0.43
2023-03-26T13:34:34.491Z,0.57
2023-03-26T13:36:24.413Z,2.63
2023-03-26T13:38:06.382Z,0.80
2023-03-26T13:39:27.856Z,0.40
2023-03-26T13:40:29.485Z,0.70
2023-03-26T13:41:46.906Z,0.40
2023-03-26T13:43:11.605Z,0.75
2023-03-26T13:44:25.806Z,0.77
2023-03-26T13:45:42.363Z,0.90
2023-03-26T13:46:55.676Z,0.75
2023-03-26T13:47:58.496Z,1.23
2023-03-26T13:49:08.231Z,1.38
2023-03-26T13:50:29.262Z,3.60
2023-03-26T13:51:39.566Z,1.25
2023-03-26T13:53:31.033Z,0.80
2023-03-26T13:54:37.757Z,1.17
2023-03-26T13:55:47.874Z,1.20
2023-03-26T13:57:02.955Z,1.35
2023-03-26T13:58:16.497Z,1.40
2023-03-26T13:59:36.400Z,1.30
2023-03-26T14:00:54.462Z,1.52
2023-03-26T14:02:02.132Z,1.20
2023-03-26T14:03:23.968Z,1.40
2023-03-26T14:04:39.540Z,1.60
2023-03-26T14:05:46.129Z,1.20
2023-03-26T14:07:21.068Z,1.25
2023-03-26T14:08:34.003Z,1.40
2023-03-26T14:09:48.216Z,1.30
2023-03-26T14:10:56.101Z,1.40
2023-03-26T14:11:58.075Z,1.63
2023-03-26T14:13:49.106Z,1.30
2023-03-26T14:15:07.199Z,1.75
2023-03-26T14:16:15.001Z,1.75
2023-03-26T14:17:19.750Z,1.30
2023-03-26T14:18:43.228Z,1.40
2023-03-26T14:20:22.420Z,1.40
2023-03-26T14:21:34.204Z,1.55
2023-03-26T14:22:45.636Z,1.38
2023-03-26T14:23:53.436Z,1.10
2023-03-26T14:25:08.538Z,1.38
2023-03-26T14:26:31.370Z,1.50
2023-03-26T14:27:37.357Z,1.40
2023-03-26T14:29:03.531Z,1.65
2023-03-26T14:30:34.560Z,1.50
2023-03-26T14:31:42.434Z,1.60
2023-03-26T14:33:04.173Z,1.50
2023-03-26T14:34:24.435Z,1.50
2023-03-26T14:35:39.780Z,1.50
2023-03-26T14:37:09.321Z,1.33
2023-03-26T14:38:42.800Z,1.30
2023-03-26T14:40:25.264Z,1.27
2023-03-26T14:41:36.772Z,1.67
2023-03-26T14:42:53.415Z,1.30
2023-03-26T14:44:11.248Z,1.50
2023-03-26T14:45:31.518Z,1.40
2023-03-26T14:46:35.966Z,1.42
2023-03-26T14:48:07.888Z,1.70
2023-03-26T14:49:33.094Z,1.50
2023-03-26T14:50:35.945Z,1.40
2023-03-26T14:52:03.788Z,1.50
2023-03-26T14:53:16.249Z,1.48
2023-03-26T14:54:20.856Z,1.48
2023-03-26T14:55:50.539Z,1.63
2023-03-26T14:56:53.520Z,1.38
2023-03-26T14:58:02.013Z,1.50
2023-03-26T14:59:23.290Z,1.45
2023-03-26T15:00:52.888Z,1.40
2023-03-26T15:02:11.732Z,1.20
2023-03-26T15:03:13.417Z,1.45
2023-03-26T15:04:39.416Z,1.50
2023-03-26T15:05:50.096Z,1.23
2023-03-26T15:07:10.361Z,1.40
2023-03-26T15:08:39.824Z,1.50
2023-03-26T15:10:18.920Z,1.15
2023-03-26T15:11:48.251Z,1.20
2023-03-26T15:12:58.628Z,1.23
2023-03-26T15:14:19.147Z,1.30
2023-03-26T15:15:39.501Z,1.30
2023-03-26T15:17:10.447Z,1.27
2023-03-26T15:18:31.358Z,1.20
2023-03-26T15:19:47.850Z,1.30
2023-03-26T15:21:26.609Z,1.25
2023-03-26T15:22:47.791Z,1.10
2023-03-26T15:24:19.312Z,1.10
2023-03-26T15:25:42.368Z,1.08
2023-03-26T15:27:05.653Z,1.60
2023-03-26T15:28:19.188Z,1.05
2023-03-26T15:29:52.572Z,1.08
2023-03-26T15:31:31.814Z,1.13
2023-03-26T15:33:05.252Z,1.00
2023-03-26T15:34:25.690Z,1.02
2023-03-26T15:35:30.129Z,1.10
2023-03-26T15:37:02.308Z,1.00
2023-03-26T15:38:15.782Z,1.25
2023-03-26T15:39:23.380Z,1.00
2023-03-26T15:40:30.628Z,0.90
2023-03-26T15:41:44.368Z,1.23
2023-03-26T15:42:58.094Z,1.50
2023-03-26T15:45:13.311Z,1.00
2023-03-26T15:46:38.226Z,1.33
2023-03-26T15:47:48.593Z,1.00
2023-03-26T15:49:02.440Z,1.20
2023-03-26T15:50:25.025Z,1.00
2023-03-26T15:51:57.528Z,0.88
2023-03-26T15:53:23.897Z,1.30
2023-03-26T15:54:52.192Z,0.98
2023-03-26T15:56:00.607Z,1.20
2023-03-26T15:57:16.566Z,1.05
2023-03-26T15:58:24.006Z,1.10
2023-03-26T15:59:25.592Z,1.30
2023-03-26T16:00:35.008Z,1.10
2023-03-26T16:02:04.655Z,0.82
2023-03-26T16:03:48.180Z,0.90
2023-03-26T16:05:08.296Z,0.90
2023-03-26T16:06:31.134Z,1.02
2023-03-26T16:07:39.140Z,0.88
2023-03-26T16:09:14.817Z,1.40
2023-03-26T16:10:22.867Z,1.00
2023-03-26T16:11:50.866Z,1.10
2023-03-26T16:13:20.639Z,1.08
2023-03-26T16:14:34.581Z,1.30
2023-03-26T16:15:36.677Z,1.23
2023-03-26T16:17:17.545Z,2.03
2023-03-26T16:18:25.923Z,1.33
2023-03-26T16:19:55.881Z,1.25
2023-03-26T16:21:32.066Z,1.17
2023-03-26T16:22:56.509Z,1.20
2023-03-26T16:24:13.378Z,1.10
2023-03-26T16:25:27.456Z,1.15
2023-03-26T16:26:37.825Z,1.20
2023-03-26T16:27:39.807Z,1.10
2023-03-26T16:28:52.712Z,1.02
2023-03-26T16:30:00.355Z,1.27
2023-03-26T16:31:05.154Z,1.15
2023-03-26T16:32:28.821Z,1.30
2023-03-26T16:33:52.422Z,1.00
2023-03-26T16:35:12.886Z,1.25
2023-03-26T16:36:43.046Z,1.35
2023-03-26T16:37:50.616Z,1.40
2023-03-26T16:39:17.134Z,1.30
2023-03-26T16:40:20.813Z,1.50
2023-03-26T16:41:38.687Z,1.40
2023-03-26T16:42:46.088Z,1.50
2023-03-26T16:44:16.650Z,1.15
2023-03-26T16:45:43.979Z,1.27
2023-03-26T16:47:03.770Z,1.40
2023-03-26T16:48:05.547Z,1.23